Home > Products > Valid Products > TAF

000
FTUS43 KOAX 221335 AAA
TAFOMA
TAF AMD
KOMA 221335Z 2214/2312 18009KT 2SM BR OVC005
      TEMPO 2215/2218 5SM SCT007 OVC012
     FM221800 19012KT P6SM SCT250
     FM230000 17013KT P6SM BKN250
     FM230500 18010KT 5SM BR OVC020=



000
FTUS43 KOAX 221335 AAA
TAFOMA
TAF AMD
KOMA 221335Z 2214/2312 18009KT 2SM BR OVC005
      TEMPO 2215/2218 5SM SCT007 OVC012
     FM221800 19012KT P6SM SCT250
     FM230000 17013KT P6SM BKN250
     FM230500 18010KT 5SM BR OVC020=



000
FTUS43 KOAX 221310 AAA
TAFLNK
TAF AMD
KLNK 221310Z 2213/2312 21008KT 4SM BR OVC004
      TEMPO 2213/2215 2SM BR
     FM221500 21009KT 4SM BR OVC007
      TEMPO 2215/2217 6SM BR BKN012
     FM221700 20013KT P6SM SCT250
     FM230100 18010KT 6SM BR BKN250
     FM231000 22007KT 5SM BR OVC020=



000
FTUS43 KOAX 221310 AAA
TAFLNK
TAF AMD
KLNK 221310Z 2213/2312 21008KT 4SM BR OVC004
      TEMPO 2213/2215 2SM BR
     FM221500 21009KT 4SM BR OVC007
      TEMPO 2215/2217 6SM BR BKN012
     FM221700 20013KT P6SM SCT250
     FM230100 18010KT 6SM BR BKN250
     FM231000 22007KT 5SM BR OVC020=



000
FTUS43 KOAX 221307 AAA
TAFOFK
TAF AMD
KOFK 221307Z 2213/2312 20014KT 3SM BR OVC004
      TEMPO 2214/2216 5SM BR SCT006
     FM221600 21014KT P6SM SCT250
     FM230900 26007KT P6SM BKN250=



000
FTUS43 KOAX 221307 AAA
TAFOFK
TAF AMD
KOFK 221307Z 2213/2312 20014KT 3SM BR OVC004
      TEMPO 2214/2216 5SM BR SCT006
     FM221600 21014KT P6SM SCT250
     FM230900 26007KT P6SM BKN250=



000
FTUS43 KOAX 221121
TAFLNK
TAF
KLNK 221121Z 2212/2312 20006KT 4SM BR OVC006
     FM221400 20008KT 3SM BR OVC006
      TEMPO 2214/2216 6SM BR BKN012
     FM221600 20012KT P6SM SCT250
     FM230100 18010KT 6SM BR BKN250
     FM231000 22007KT 5SM BR OVC020=



000
FTUS43 KOAX 221121
TAFOFK
TAF
KOFK 221121Z 2212/2312 20008KT 5SM BR SCT008
      TEMPO 2212/2214 3SM BR OVC006
     FM221400 21012KT P6SM SCT250
     FM230900 26007KT P6SM BKN250=



000
FTUS43 KOAX 221121
TAFOMA
TAF
KOMA 221121Z 2212/2312 16007KT 2SM BR OVC006
      TEMPO 2213/2216 5SM SCT007 OVC015
     FM221600 19012KT P6SM SCT250
     FM230000 17013KT P6SM BKN250
     FM230500 18010KT 5SM BR OVC020=



000
FTUS43 KOAX 221121
TAFOMA
TAF
KOMA 221121Z 2212/2312 16007KT 2SM BR OVC006
      TEMPO 2213/2216 5SM SCT007 OVC015
     FM221600 19012KT P6SM SCT250
     FM230000 17013KT P6SM BKN250
     FM230500 18010KT 5SM BR OVC020=



000
FTUS43 KOAX 221121
TAFLNK
TAF
KLNK 221121Z 2212/2312 20006KT 4SM BR OVC006
     FM221400 20008KT 3SM BR OVC006
      TEMPO 2214/2216 6SM BR BKN012
     FM221600 20012KT P6SM SCT250
     FM230100 18010KT 6SM BR BKN250
     FM231000 22007KT 5SM BR OVC020=



000
FTUS43 KOAX 221121
TAFOFK
TAF
KOFK 221121Z 2212/2312 20008KT 5SM BR SCT008
      TEMPO 2212/2214 3SM BR OVC006
     FM221400 21012KT P6SM SCT250
     FM230900 26007KT P6SM BKN250=



000
FTUS43 KOAX 220902 AAA
TAFLNK
TAF AMD
KLNK 220902Z 2209/2306 20006KT 6SM BR SCT005 OVC012
      TEMPO 2209/2212 3SM BR OVC005
     FM221200 20008KT 3SM BR OVC005
      TEMPO 2212/2216 6SM BR BKN012
     FM221600 20010KT P6SM SCT250
      TEMPO 2221/2301 BKN015
     FM230100 18007KT 5SM BR OVC007=



000
FTUS43 KOAX 220902 AAA
TAFLNK
TAF AMD
KLNK 220902Z 2209/2306 20006KT 6SM BR SCT005 OVC012
      TEMPO 2209/2212 3SM BR OVC005
     FM221200 20008KT 3SM BR OVC005
      TEMPO 2212/2216 6SM BR BKN012
     FM221600 20010KT P6SM SCT250
      TEMPO 2221/2301 BKN015
     FM230100 18007KT 5SM BR OVC007=



000
FTUS43 KOAX 220859 AAA
TAFOMA
TAF AMD
KOMA 220859Z 2209/2306 16007KT 2SM BR OVC005
      TEMPO 2213/2216 4SM SCT007 OVC015
     FM221600 19010KT P6SM SCT250
      TEMPO 2221/2301 BKN015
     FM230100 16009KT 5SM BR OVC007=



000
FTUS43 KOAX 220859 AAA
TAFOMA
TAF AMD
KOMA 220859Z 2209/2306 16007KT 2SM BR OVC005
      TEMPO 2213/2216 4SM SCT007 OVC015
     FM221600 19010KT P6SM SCT250
      TEMPO 2221/2301 BKN015
     FM230100 16009KT 5SM BR OVC007=



000
FTUS43 KOAX 220852 AAB
TAFOFK
TAF AMD
KOFK 220852Z 2209/2306 20008KT 2SM BR OVC004
      TEMPO 2210/2213 3SM BR SCT010
     FM221300 20010KT P6SM SCT250
      TEMPO 2301/2303 BKN015
     FM230300 19009KT 5SM BR OVC015=



000
FTUS43 KOAX 220636 AAA
TAFOFK
TAF AMD
KOFK 220636Z 2207/2306 20006KT 5SM BR OVC008
      TEMPO 2208/2212 3SM BR SCT012
     FM221200 20010KT P6SM SCT250
      TEMPO 2301/2303 BKN015
     FM230300 19009KT 5SM BR OVC015=



000
FTUS43 KOAX 220636 AAA
TAFOFK
TAF AMD
KOFK 220636Z 2207/2306 20006KT 5SM BR OVC008
      TEMPO 2208/2212 3SM BR SCT012
     FM221200 20010KT P6SM SCT250
      TEMPO 2301/2303 BKN015
     FM230300 19009KT 5SM BR OVC015=



000
FTUS43 KOAX 220521
TAFOMA
TAF
KOMA 220521Z 2206/2306 17008KT 1 1/2SM -DZ BR OVC004
      TEMPO 2213/2216 4SM SCT007 OVC015
     FM221600 19010KT P6SM SCT250
      TEMPO 2221/2301 BKN015
     FM230100 16009KT 5SM BR OVC007=



000
FTUS43 KOAX 220521
TAFOFK
TAF
KOFK 220521Z 2206/2306 19006KT P6SM OVC012
      TEMPO 2208/2212 5SM BR SCT015
     FM221200 20010KT P6SM SCT250
      TEMPO 2301/2303 BKN015
     FM230300 19009KT 5SM BR OVC015=



000
FTUS43 KOAX 220521
TAFLNK
TAF
KLNK 220521Z 2206/2306 19006KT 4SM BR SCT003 OVC006
      TEMPO 2212/2216 5SM BR BKN015
     FM221600 20010KT P6SM SCT250
      TEMPO 2221/2301 BKN015
     FM230100 18007KT 5SM BR OVC007=



000
FTUS43 KOAX 220521
TAFOFK
TAF
KOFK 220521Z 2206/2306 19006KT P6SM OVC012
      TEMPO 2208/2212 5SM BR SCT015
     FM221200 20010KT P6SM SCT250
      TEMPO 2301/2303 BKN015
     FM230300 19009KT 5SM BR OVC015=



000
FTUS43 KOAX 220521
TAFOMA
TAF
KOMA 220521Z 2206/2306 17008KT 1 1/2SM -DZ BR OVC004
      TEMPO 2213/2216 4SM SCT007 OVC015
     FM221600 19010KT P6SM SCT250
      TEMPO 2221/2301 BKN015
     FM230100 16009KT 5SM BR OVC007=



000
FTUS43 KOAX 220521
TAFLNK
TAF
KLNK 220521Z 2206/2306 19006KT 4SM BR SCT003 OVC006
      TEMPO 2212/2216 5SM BR BKN015
     FM221600 20010KT P6SM SCT250
      TEMPO 2221/2301 BKN015
     FM230100 18007KT 5SM BR OVC007=



000
FTUS43 KOAX 220416 AAA
TAFOMA
TAF AMD
KOMA 220416Z 2204/2224 17008KT 3SM BR SCT003 OVC005
     FM221600 19010KT P6SM SCT015
      TEMPO 2221/2224 BKN015=



000
FTUS43 KOAX 220416 AAA
TAFOMA
TAF AMD
KOMA 220416Z 2204/2224 17008KT 3SM BR SCT003 OVC005
     FM221600 19010KT P6SM SCT015
      TEMPO 2221/2224 BKN015=



000
FTUS43 KOAX 220415 AAA
TAFLNK
TAF AMD
KLNK 220415Z 2204/2224 19006KT 3SM BR SCT003 OVC005
     FM221600 20010KT P6SM SCT015
      TEMPO 2221/2224 BKN015=



000
FTUS43 KOAX 212320
TAFOMA
TAF
KOMA 212320Z 2200/2224 16009KT P6SM OVC015
      TEMPO 2201/2203 5SM BR BKN007
     FM220300 17007KT 3SM BR SCT003 OVC006
     FM221600 19010KT P6SM SCT015
      TEMPO 2221/2224 BKN015=



000
FTUS43 KOAX 212320
TAFLNK
TAF
KLNK 212320Z 2200/2224 16008KT P6SM OVC015
      TEMPO 2201/2203 5SM BR BKN007
     FM220300 17007KT 3SM BR SCT003 OVC006
     FM221600 19010KT P6SM SCT015
      TEMPO 2221/2224 BKN015=



000
FTUS43 KOAX 212320
TAFOFK
TAF
KOFK 212320Z 2200/2224 17008KT P6SM OVC100
      TEMPO 2202/2206 BKN015
     FM220600 19006KT 5SM BR BKN007
     FM220800 20005KT 2SM BR OVC005
      TEMPO 2208/2212 3/4SM BR BKN003
     FM221500 20010KT P6SM BKN250=



000
FTUS43 KOAX 212320
TAFLNK
TAF
KLNK 212320Z 2200/2224 16008KT P6SM OVC015
      TEMPO 2201/2203 5SM BR BKN007
     FM220300 17007KT 3SM BR SCT003 OVC006
     FM221600 19010KT P6SM SCT015
      TEMPO 2221/2224 BKN015=



000
FTUS43 KOAX 212320
TAFOFK
TAF
KOFK 212320Z 2200/2224 17008KT P6SM OVC100
      TEMPO 2202/2206 BKN015
     FM220600 19006KT 5SM BR BKN007
     FM220800 20005KT 2SM BR OVC005
      TEMPO 2208/2212 3/4SM BR BKN003
     FM221500 20010KT P6SM BKN250=



000
FTUS43 KOAX 212320
TAFOMA
TAF
KOMA 212320Z 2200/2224 16009KT P6SM OVC015
      TEMPO 2201/2203 5SM BR BKN007
     FM220300 17007KT 3SM BR SCT003 OVC006
     FM221600 19010KT P6SM SCT015
      TEMPO 2221/2224 BKN015=



000
FTUS43 KOAX 212240 AAB
TAFOFK
TAF AMD
KOFK 212240Z 2123/2218 17009KT P6SM BKN100
      TEMPO 2201/2203 BKN015
     FM220300 19010KT 4SM BR BKN008
      TEMPO 2208/2212 1SM BR SCT002 BKN005=



000
FTUS43 KOAX 212240 AAB
TAFOFK
TAF AMD
KOFK 212240Z 2123/2218 17009KT P6SM BKN100
      TEMPO 2201/2203 BKN015
     FM220300 19010KT 4SM BR BKN008
      TEMPO 2208/2212 1SM BR SCT002 BKN005=



000
FTUS43 KOAX 212056 AAA
TAFOMA
TAF AMD
KOMA 212056Z 2121/2218 16010KT P6SM SCT015 OVC100
      TEMPO 2122/2123 BKN015
     FM212300 16010KT P6SM OVC015
      TEMPO 2123/2203 5SM -DZ BR
     FM220300 16008KT 5SM BR SCT006 OVC010
      TEMPO 2208/2212 2SM BR=



000
FTUS43 KOAX 212056 AAA
TAFLNK
TAF AMD
KLNK 212056Z 2121/2218 17010KT P6SM SCT015 OVC100
      TEMPO 2121/2122 BKN015
     FM212200 17010KT P6SM OVC015
      TEMPO 2123/2203 5SM -DZ BR
     FM220300 17008KT 5SM BR SCT006 OVC010
      TEMPO 2208/2212 2SM BR=



000
FTUS43 KOAX 212056 AAA
TAFOMA
TAF AMD
KOMA 212056Z 2121/2218 16010KT P6SM SCT015 OVC100
      TEMPO 2122/2123 BKN015
     FM212300 16010KT P6SM OVC015
      TEMPO 2123/2203 5SM -DZ BR
     FM220300 16008KT 5SM BR SCT006 OVC010
      TEMPO 2208/2212 2SM BR=



000
FTUS43 KOAX 212056 AAA
TAFOFK
TAF AMD
KOFK 212056Z 2121/2218 17012KT P6SM BKN100
     FM212300 18010KT P6SM BKN015
     FM220300 19010KT 4SM BR BKN008
      TEMPO 2208/2212 1SM BR SCT002 BKN005=



000
FTUS43 KOAX 211720
TAFOFK
TAF
KOFK 211720Z 2118/2218 18014KT P6SM BKN100
     FM220300 19010KT 5SM BR BKN008=



000
FTUS43 KOAX 211720
TAFOMA
TAF
KOMA 211720Z 2118/2218 16010KT P6SM SCT015 OVC100
      TEMPO 2122/2124 BKN015
     FM220000 16008KT 5SM BR SCT006 OVC010
      TEMPO 2208/2212 2SM -DZ BR=



000
FTUS43 KOAX 211720
TAFOFK
TAF
KOFK 211720Z 2118/2218 18014KT P6SM BKN100
     FM220300 19010KT 5SM BR BKN008=



000
FTUS43 KOAX 211720
TAFOMA
TAF
KOMA 211720Z 2118/2218 16010KT P6SM SCT015 OVC100
      TEMPO 2122/2124 BKN015
     FM220000 16008KT 5SM BR SCT006 OVC010
      TEMPO 2208/2212 2SM -DZ BR=



000
FTUS43 KOAX 211720
TAFLNK
TAF
KLNK 211720Z 2118/2218 17010KT P6SM SCT015 OVC100
      TEMPO 2121/2124 BKN015
     FM220000 16008KT 5SM BR SCT006 OVC010
      TEMPO 2208/2212 2SM -DZ BR=



000
FTUS43 KOAX 211720
TAFLNK
TAF
KLNK 211720Z 2118/2218 17010KT P6SM SCT015 OVC100
      TEMPO 2121/2124 BKN015
     FM220000 16008KT 5SM BR SCT006 OVC010
      TEMPO 2208/2212 2SM -DZ BR=



000
FTUS43 KOAX 211125
TAFOFK
TAF
KOFK 211125Z 2112/2212 16009KT P6SM BKN250
     FM211600 18013KT P6SM SCT070 BKN120
     FM212100 18010KT P6SM SCT018 OVC100
     FM220300 19008KT 5SM BR BKN015
      TEMPO 2208/2212 2SM BR OVC008=



000
FTUS43 KOAX 211125
TAFLNK
TAF
KLNK 211125Z 2112/2212 16006KT P6SM BKN250
     FM211700 17010KT P6SM SCT020 OVC100
      TEMPO 2120/2124 BKN020
     FM220000 16005KT 5SM BR OVC018
      TEMPO 2202/2206 2SM BR OVC008
     FM220600 19005KT 3SM BR OVC008=



000
FTUS43 KOAX 211125
TAFOMA
TAF
KOMA 211125Z 2112/2212 15008KT P6SM BKN250
     FM211800 16010KT P6SM SCT020 OVC100
      TEMPO 2120/2124 5SM BR OVC020
     FM220000 16007KT 5SM BR OVC015
      TEMPO 2202/2206 2SM BR OVC008
     FM220600 16007KT 3SM BR OVC008=



000
FTUS43 KOAX 211125
TAFOFK
TAF
KOFK 211125Z 2112/2212 16009KT P6SM BKN250
     FM211600 18013KT P6SM SCT070 BKN120
     FM212100 18010KT P6SM SCT018 OVC100
     FM220300 19008KT 5SM BR BKN015
      TEMPO 2208/2212 2SM BR OVC008=



000
FTUS43 KOAX 211125
TAFOMA
TAF
KOMA 211125Z 2112/2212 15008KT P6SM BKN250
     FM211800 16010KT P6SM SCT020 OVC100
      TEMPO 2120/2124 5SM BR OVC020
     FM220000 16007KT 5SM BR OVC015
      TEMPO 2202/2206 2SM BR OVC008
     FM220600 16007KT 3SM BR OVC008=



000
FTUS43 KOAX 211125
TAFLNK
TAF
KLNK 211125Z 2112/2212 16006KT P6SM BKN250
     FM211700 17010KT P6SM SCT020 OVC100
      TEMPO 2120/2124 BKN020
     FM220000 16005KT 5SM BR OVC018
      TEMPO 2202/2206 2SM BR OVC008
     FM220600 19005KT 3SM BR OVC008=



000
FTUS43 KOAX 210520
TAFOFK
TAF
KOFK 210520Z 2106/2206 15008KT P6SM SKC
     FM211600 17013KT P6SM SCT018 BKN150
     FM220300 17010KT 5SM BR BKN010=



000
FTUS43 KOAX 210520
TAFOMA
TAF
KOMA 210520Z 2106/2206 13006KT P6SM SKC
     FM211500 16010KT P6SM SCT020 BKN150
     FM220000 16011KT 5SM BR OVC018=



000
FTUS43 KOAX 210520
TAFOMA
TAF
KOMA 210520Z 2106/2206 13006KT P6SM SKC
     FM211500 16010KT P6SM SCT020 BKN150
     FM220000 16011KT 5SM BR OVC018=



000
FTUS43 KOAX 210520
TAFOFK
TAF
KOFK 210520Z 2106/2206 15008KT P6SM SKC
     FM211600 17013KT P6SM SCT018 BKN150
     FM220300 17010KT 5SM BR BKN010=



000
FTUS43 KOAX 210520
TAFLNK
TAF
KLNK 210520Z 2106/2206 13006KT P6SM SKC
     FM211500 17011KT P6SM SCT020 BKN150
     FM212300 16011KT 5SM BR OVC018=



000
FTUS43 KOAX 210520
TAFLNK
TAF
KLNK 210520Z 2106/2206 13006KT P6SM SKC
     FM211500 17011KT P6SM SCT020 BKN150
     FM212300 16011KT 5SM BR OVC018=



000
FTUS43 KOAX 210401 AAA
TAFLNK
TAF AMD
KLNK 210401Z 2104/2124 12006KT P6SM SKC
      TEMPO 2106/2109 5SM BR
     FM211500 17011KT P6SM SKC
     FM212100 16011KT P6SM BKN020=



000
FTUS43 KOAX 210401 AAA
TAFLNK
TAF AMD
KLNK 210401Z 2104/2124 12006KT P6SM SKC
      TEMPO 2106/2109 5SM BR
     FM211500 17011KT P6SM SKC
     FM212100 16011KT P6SM BKN020=



000
FTUS43 KOAX 202325
TAFLNK
TAF
KLNK 202325Z 2100/2124 VRB03KT P6SM SKC
     FM210400 12005KT 5SM BR SKC
     FM211500 17011KT P6SM SKC
     FM212100 16011KT P6SM BKN020=



000
FTUS43 KOAX 202325
TAFOMA
TAF
KOMA 202325Z 2100/2124 04005KT P6SM SCT025
     FM210600 12006KT 5SM BR SKC
     FM211500 16010KT P6SM SCT020
     FM212200 16011KT P6SM BKN020=



000
FTUS43 KOAX 202325
TAFOFK
TAF
KOFK 202325Z 2100/2124 12005KT P6SM SCT020
      TEMPO 2105/2108 4SM BR
     FM210800 17007KT P6SM SCT018 WS015/20036KT
     FM211600 16012KT P6SM SCT018=



000
FTUS43 KOAX 202325
TAFOFK
TAF
KOFK 202325Z 2100/2124 12005KT P6SM SCT020
      TEMPO 2105/2108 4SM BR
     FM210800 17007KT P6SM SCT018 WS015/20036KT
     FM211600 16012KT P6SM SCT018=



000
FTUS43 KOAX 202325
TAFOMA
TAF
KOMA 202325Z 2100/2124 04005KT P6SM SCT025
     FM210600 12006KT 5SM BR SKC
     FM211500 16010KT P6SM SCT020
     FM212200 16011KT P6SM BKN020=



000
FTUS43 KOAX 202325
TAFLNK
TAF
KLNK 202325Z 2100/2124 VRB03KT P6SM SKC
     FM210400 12005KT 5SM BR SKC
     FM211500 17011KT P6SM SKC
     FM212100 16011KT P6SM BKN020=



000
FTUS43 KOAX 201720
TAFLNK
TAF
KLNK 201720Z 2018/2118 VRB04KT P6SM FEW035
     FM202100 12004KT P6SM SCT035 SCT250=



000
FTUS43 KOAX 201720
TAFOFK
TAF
KOFK 201720Z 2018/2118 VRB05KT P6SM SCT250
      TEMPO 2018/2022 BKN020
     FM202200 15006KT P6SM SCT035 SCT250
     FM210800 17007KT P6SM OVC250 WS015/20036KT=



000
FTUS43 KOAX 201720
TAFOMA
TAF
KOMA 201720Z 2018/2118 VRB04KT P6SM SCT035 BKN200
      TEMPO 2018/2022 BKN025
     FM202200 11004KT P6SM SCT035 SCT250=



000
FTUS43 KOAX 201720
TAFOMA
TAF
KOMA 201720Z 2018/2118 VRB04KT P6SM SCT035 BKN200
      TEMPO 2018/2022 BKN025
     FM202200 11004KT P6SM SCT035 SCT250=



000
FTUS43 KOAX 201720
TAFOFK
TAF
KOFK 201720Z 2018/2118 VRB05KT P6SM SCT250
      TEMPO 2018/2022 BKN020
     FM202200 15006KT P6SM SCT035 SCT250
     FM210800 17007KT P6SM OVC250 WS015/20036KT=



000
FTUS43 KOAX 201720
TAFLNK
TAF
KLNK 201720Z 2018/2118 VRB04KT P6SM FEW035
     FM202100 12004KT P6SM SCT035 SCT250=



000
FTUS43 KOAX 201343 AAA
TAFOFK
TAF AMD
KOFK 201343Z 2014/2112 27004KT P6SM OVC025
     FM201700 VRB04KT P6SM BKN035
     FM210000 15006KT P6SM SCT035 SCT250=



000
FTUS43 KOAX 201343 AAA
TAFOFK
TAF AMD
KOFK 201343Z 2014/2112 27004KT P6SM OVC025
     FM201700 VRB04KT P6SM BKN035
     FM210000 15006KT P6SM SCT035 SCT250=



000
FTUS43 KOAX 201334 AAA
TAFOMA
TAF AMD
KOMA 201334Z 2014/2112 VRB03KT P6SM SCT035 BKN150
      TEMPO 2014/2018 BKN025
     FM202100 11004KT P6SM SCT035 SCT250=



000
FTUS43 KOAX 201334 AAA
TAFOMA
TAF AMD
KOMA 201334Z 2014/2112 VRB03KT P6SM SCT035 BKN150
      TEMPO 2014/2018 BKN025
     FM202100 11004KT P6SM SCT035 SCT250=



000
FTUS43 KOAX 201305 RRA
TAFLNK
TAF
KLNK 201305Z 2013/2112 VRB04KT P6SM FEW035 BKN150
     FM202100 12004KT P6SM SCT035 SCT250=



000
FTUS43 KOAX 201305 RRA
TAFLNK
TAF
KLNK 201305Z 2013/2112 VRB04KT P6SM FEW035 BKN150
     FM202100 12004KT P6SM SCT035 SCT250=



000
FTUS43 KOAX 201128
TAFOMA
TAF
KOMA 201128Z 2012/2112 VRB03KT P6SM SCT035 BKN150
     FM202100 11004KT P6SM SCT035 SCT250=



000
FTUS43 KOAX 201128
TAFOFK
TAF
KOFK 201128Z 2012/2112 29004KT P6SM BKN150
      TEMPO 2013/2016 BKN025
     FM201800 VRB04KT P6SM BKN150
     FM210000 15006KT P6SM SCT035 SCT250=



000
FTUS43 KOAX 201128
TAFOMA
TAF
KOMA 201128Z 2012/2112 32005KT P6SM SCT035 BKN150
     FM202100 VRB04KT P6SM SCT035 SCT250=



000
FTUS43 KOAX 201128
TAFOFK
TAF
KOFK 201128Z 2012/2112 29004KT P6SM BKN150
      TEMPO 2013/2016 BKN025
     FM201800 VRB04KT P6SM BKN150
     FM210000 15006KT P6SM SCT035 SCT250=



000
FTUS43 KOAX 200541 CCA
TAFLNK
TAF COR
KLNK 200541Z 2006/2106 VRB03KT P6SM SCT250
     FM201800 VRB04KT P6SM BKN035=



000
FTUS43 KOAX 200541 CCA
TAFLNK
TAF COR
KLNK 200541Z 2006/2106 VRB03KT P6SM SCT250
     FM201800 VRB04KT P6SM BKN035=



000
FTUS43 KOAX 200540
TAFOMA
TAF
KOMA 200540Z 2006/2106 29004KT P6SM BKN035
     FM200800 VRB03KT P6SM SCT028
      TEMPO 2008/2012 BKN028
     FM201200 34005KT P6SM BKN035=



000
FTUS43 KOAX 200540
TAFOFK
TAF
KOFK 200540Z 2006/2106 30006KT P6SM BKN025
      TEMPO 2007/2011 29004KT P6SM SCT030
     FM201500 VRB04KT P6SM BKN040=



000
FTUS43 KOAX 200540
TAFLNK
TAF
KLNK 200540Z 2006/2106 VRB03KT P6SM SCT250
     FM201800 34005KT P6SM BKN035=



000
FTUS43 KOAX 200540
TAFLNK
TAF
KLNK 200540Z 2006/2106 VRB03KT P6SM SCT250
     FM201800 34005KT P6SM BKN035=



000
FTUS43 KOAX 200540
TAFOFK
TAF
KOFK 200540Z 2006/2106 30006KT P6SM BKN025
      TEMPO 2007/2011 29004KT P6SM SCT030
     FM201500 VRB04KT P6SM BKN040=



000
FTUS43 KOAX 200540
TAFOMA
TAF
KOMA 200540Z 2006/2106 29004KT P6SM BKN035
     FM200800 VRB03KT P6SM SCT028
      TEMPO 2008/2012 BKN028
     FM201200 34005KT P6SM BKN035=



000
FTUS43 KOAX 192333
TAFLNK
TAF
KLNK 192333Z 2000/2024 30003KT P6SM SKC
     FM200600 30002KT P6SM BKN040
     FM201200 34005KT P6SM SCT030=



000
FTUS43 KOAX 192333
TAFOMA
TAF
KOMA 192333Z 2000/2024 27008KT P6SM BKN035
      TEMPO 2006/2009 SCT035
     FM201800 34005KT P6SM SCT040=



000
FTUS43 KOAX 192333
TAFOMA
TAF
KOMA 192333Z 2000/2024 27008KT P6SM BKN035
      TEMPO 2006/2009 SCT035
     FM201800 34005KT P6SM SCT040=



000
FTUS43 KOAX 192333
TAFOFK
TAF
KOFK 192333Z 2000/2024 29007KT P6SM OVC030
      TEMPO 2003/2006 SCT030
     FM200600 28004KT P6SM SCT040=



000
FTUS43 KOAX 192231 AAA
TAFOFK
TAF AMD
KOFK 192231Z 1923/2018 30012KT P6SM OVC028
     FM200000 30008KT P6SM OVC035
      TEMPO 2000/2003 OVC028
     FM200600 28004KT P6SM BKN050=



000
FTUS43 KOAX 192231 AAA
TAFOFK
TAF AMD
KOFK 192231Z 1923/2018 30012KT P6SM OVC028
     FM200000 30008KT P6SM OVC035
      TEMPO 2000/2003 OVC028
     FM200600 28004KT P6SM BKN050=



000
FTUS43 KOAX 192225 AAA
TAFOMA
TAF AMD
KOMA 192225Z 1922/2018 27010KT P6SM BKN035
      TEMPO 1922/2002 29013KT BKN030
     FM200600 30005KT P6SM BKN040=



000
FTUS43 KOAX 192221 AAA
TAFLNK
TAF AMD
KLNK 192221Z 1922/2018 29006KT P6SM SKC
     FM200600 30002KT P6SM BKN040
     FM201200 34005KT P6SM SCT030=



000
FTUS43 KOAX 192221 AAA
TAFLNK
TAF AMD
KLNK 192221Z 1922/2018 29006KT P6SM SKC
     FM200600 30002KT P6SM BKN040
     FM201200 34005KT P6SM SCT030=



000
FTUS43 KOAX 191720
TAFOFK
TAF
KOFK 191720Z 1918/2018 33012G18KT P6SM OVC025
     FM192200 31012KT P6SM BKN050
     FM200000 31004KT P6SM SKC=



000
FTUS43 KOAX 191720
TAFOMA
TAF
KOMA 191720Z 1918/2018 32015G25KT P6SM BKN025
     FM192200 31012KT P6SM BKN050
     FM200000 31004KT P6SM SCT250=



000
FTUS43 KOAX 191720
TAFLNK
TAF
KLNK 191720Z 1918/2018 32012G18KT P6SM OVC100
      TEMPO 1918/1920 BKN025
     FM192000 32012KT P6SM BKN250
     FM200000 30002KT P6SM SKC=



000
FTUS43 KOAX 191720
TAFOFK
TAF
KOFK 191720Z 1918/2018 33012G18KT P6SM OVC025
     FM192200 31012KT P6SM BKN050
     FM200000 31004KT P6SM SKC=



000
FTUS43 KOAX 191720
TAFOMA
TAF
KOMA 191720Z 1918/2018 32015G25KT P6SM BKN025
     FM192200 31012KT P6SM BKN050
     FM200000 31004KT P6SM SCT250=



000
FTUS43 KOAX 191720
TAFLNK
TAF
KLNK 191720Z 1918/2018 32012G18KT P6SM OVC100
      TEMPO 1918/1920 BKN025
     FM192000 32012KT P6SM BKN250
     FM200000 30002KT P6SM SKC=



000
FTUS43 KOAX 191549 AAB
TAFOMA
TAF AMD
KOMA 191549Z 1916/2012 33016G26KT P6SM BKN040
      TEMPO 1916/1920 BKN025
     FM192200 31012KT P6SM SCT035
     FM200000 28006KT P6SM SCT150=



000
FTUS43 KOAX 191549 AAB
TAFOMA
TAF AMD
KOMA 191549Z 1916/2012 33016G26KT P6SM BKN040
      TEMPO 1916/1920 BKN025
     FM192200 31012KT P6SM SCT035
     FM200000 28006KT P6SM SCT150=



    US Dept of Commerce
    National Oceanic and Atmospheric Administration
    National Weather Service
    1325 East West Highway
    Silver Spring, MD 20910
    Page Author: NWS Internet Services Team
Disclaimer
Information Quality
Credits
Glossary
Privacy Policy
Freedom of Information Act (FOIA)
About Us
Career Opportunities